This is the latest recevied weather packets stored in our database for station/object I2HLY-3. If no packets are shown the sender has not sent any weather packets the latest 10 day(s).
| Time | Temp. | Humidity | Pressure | Rain* | Wind** | Luminosity | Snow |
|---|---|---|---|---|---|---|---|
| 1778140046 | 14.44° C | 86% | 1011.7 hPa | 1.02 mm | - | - | - |
| 1778139148 | 14.44° C | 87% | 1011.7 hPa | 0 mm | - | - | - |
| 1778138251 | 14.44° C | 86% | 1011.6 hPa | 0 mm | - | - | - |
| 1778137353 | 14.44° C | 86% | 1011.4 hPa | 0 mm | - | - | - |
| 1778136435 | 13.33° C | 91% | 1011.2 hPa | 0 mm | - | - | - |
| 1778135541 | 12.78° C | 91% | 1011.2 hPa | 0 mm | - | - | - |
| 1778134642 | 12.22° C | 93% | 1011.1 hPa | 0 mm | - | - | - |
| 1778133744 | 11.67° C | 94% | 1010.9 hPa | 0 mm | - | - | - |
| 1778132851 | 11.11° C | 94% | 1010.8 hPa | 0 mm | - | - | - |
| 1778131952 | 11.11° C | 93% | 1010.7 hPa | 1.02 mm | - | - | - |
| 1778131054 | 11.11° C | 93% | 1010.6 hPa | 1.02 mm | - | - | - |
| 1778130140 | 11.11° C | 93% | 1010.4 hPa | 2.03 mm | - | - | - |
| 1778129242 | 11.11° C | 93% | 1010.3 hPa | 2.03 mm | - | - | - |
| 1778128342 | 11.11° C | 92% | 1010.2 hPa | 1.02 mm | - | - | - |
| 1778127442 | 11.11° C | 91% | 1010 hPa | 1.02 mm | - | - | - |
| 1778126547 | 11.11° C | 89% | 1009.9 hPa | 1.02 mm | - | - | - |
| 1778125648 | 11.11° C | 90% | 1009.8 hPa | 1.02 mm | - | - | - |
| 1778124748 | 11.67° C | 89% | 1009.8 hPa | 1.02 mm | - | - | - |
| 1778123854 | 11.67° C | 89% | 1009.8 hPa | 1.02 mm | - | - | - |
| 1778122955 | 11.67° C | 90% | 1009.8 hPa | 0 mm | - | - | - |
| 1778122053 | 11.67° C | 89% | 1009.8 hPa | 0 mm | - | - | - |
| 1778121139 | 11.67° C | 90% | 1009.9 hPa | 0 mm | - | - | - |
| 1778120241 | 11.11° C | 91% | 1009.9 hPa | 0 mm | - | - | - |
| 1778119342 | 11.11° C | 93% | 1010 hPa | 0 mm | - | - | - |
| 1778118444 | 11.11° C | 93% | 1009.9 hPa | 0 mm | - | - | - |
* Rain latest hour (hover to see other rain measurements)
** Current wind speed in m/s (hover to see current wind gust speed)